Portada
METAR-TAF:

METAR-TAF

Aeropuertos :

Riga, Letonia

Aeropuerto Internacional de Riga

latitud: 56-55N, longitud: 023-58E, altitud: 10 m

Observación

El informe se hizo hace 38 minutos, a las 21:20 UTC
Viento 5 kt del este-sureste, variando entre este y sur-sureste
Temperatura 14°C
Humedad 82%
Presión 1027 hPa
Visibilidad 10 km o más
sin nubes por debajo de 1500 m y sin presencia de cumulonimbus.

METAR: EVRA 232120Z 12005KT 090V150 CAVOK 14/11 Q1027 NOSIG

Hora: 00:58 (21:58 UTC)

Pronóstico

El informe se hizo hace 1 hora y 57 minutos, a las 20:01 UTC
Pronóstico válido del 23 a las 21 UTC al 24 a las 21 UTC
Viento 5 kt del este
Visibilidad 10 km o más
sin nubes por debajo de 1500 m y sin presencia de cumulonimbus.
Temporalmente
del 23 a las 23 UTC al 24 a las 05 UTC
Visibilidad: 3000 m
Nubes dispersas a una altura de 500 ft
neblina

TAF: EVRA 232001Z 2321/2421 09005KT CAVOK TEMPO 2323/2405 3000 BR SCT005

Observaciones y pronósticos meteorológicos de más de 4000 aeropuertos (mensajes METAR y TAF).

Los puntos amarillos y rojos representan las estaciones disponibles.

Ponga el ratón en el punto deseado para ver el nombre de la estación.

Haga clic para ver las observaciones y los pronósticos meteorológicos.

Para cambiar el mapa : haga clic en los botones verdes con una cruz de color negro para hacer un zoom, en el botón verde con un guión para alejar o en las flechas verdes para mapas adyacentes.


METAR-TAF: